Time;durP1;ratioP1;P1;durP2;ratioP2;P2;SDS_P1;SDS_P2;PMS_P1;PMS_P2;Temp;Humidity;BMP_temperature;BMP_pressure;BME280_temperature;BME280_humidity;BME280_pressure;Samples;Min_cycle;Max_cycle;Signal;HPM_P1;HPM_P2
2021/07/26 00:01:31;;;;;;;8.10;5.80;;;17.90;99.90;;;;;;4953443;29;20389;-73
2021/07/26 00:03:58;;;;;;;7.38;5.60;;;17.80;99.90;;;;;;4967810;28;20051;-73
2021/07/26 00:06:25;;;;;;;10.55;6.18;;;17.80;99.90;;;;;;4953818;29;20032;-72
2021/07/26 00:08:51;;;;;;;6.47;5.82;;;17.70;99.90;;;;;;4953501;29;20027;-73
2021/07/26 00:11:17;;;;;;;7.93;6.00;;;17.70;99.90;;;;;;4953565;29;20046;-73
2021/07/26 00:13:43;;;;;;;7.50;6.00;;;17.80;99.90;;;;;;4952728;29;20042;-73
2021/07/26 00:16:09;;;;;;;6.88;5.88;;;18.00;99.90;;;;;;4953226;29;20031;-74
2021/07/26 00:18:36;;;;;;;8.63;5.80;;;18.10;99.90;;;;;;4953645;29;20054;-73
2021/07/26 00:21:02;;;;;;;6.93;6.22;;;18.10;99.90;;;;;;4952275;29;20028;-73
2021/07/26 00:23:29;;;;;;;8.00;5.45;;;18.20;99.90;;;;;;4953317;29;20035;-73
2021/07/26 00:25:55;;;;;;;6.05;5.13;;;18.30;99.90;;;;;;4953494;28;20050;-74
2021/07/26 00:28:21;;;;;;;6.63;5.35;;;18.40;99.90;;;;;;4948318;29;20484;-73
2021/07/26 00:30:48;;;;;;;6.95;5.65;;;18.40;99.90;;;;;;4952669;28;20692;-75
2021/07/26 00:34:06;;;;;;;8.38;5.05;;;18.40;99.90;;;;;;4953528;29;20457;-73
2021/07/26 00:36:55;;;;;;;7.22;5.15;;;18.50;99.90;;;;;;4934553;28;20055;-74
2021/07/26 00:39:26;;;;;;;6.93;5.10;;;18.60;99.90;;;;;;4953087;29;20047;-73
2021/07/26 00:41:53;;;;;;;6.18;5.00;;;18.60;99.90;;;;;;4953061;28;20035;-72
2021/07/26 00:44:21;;;;;;;6.03;4.68;;;18.70;99.90;;;;;;4953285;28;20050;-73
2021/07/26 00:46:48;;;;;;;6.43;5.18;;;18.70;99.90;;;;;;4954319;29;20043;-74
2021/07/26 00:49:16;;;;;;;6.15;5.07;;;18.60;99.90;;;;;;4952811;29;20047;-74
2021/07/26 00:51:45;;;;;;;5.90;5.18;;;18.50;99.90;;;;;;4935287;29;20382;-73
2021/07/26 00:54:13;;;;;;;6.50;4.75;;;18.40;99.90;;;;;;4949043;28;20469;-72
2021/07/26 00:56:39;;;;;;;6.88;4.82;;;18.40;99.90;;;;;;4951520;29;20039;-74
2021/07/26 00:59:06;;;;;;;7.20;5.32;;;18.30;99.90;;;;;;4953451;29;20052;-74
2021/07/26 01:01:32;;;;;;;8.07;5.22;;;18.20;99.90;;;;;;4955054;28;20062;-72
2021/07/26 01:03:58;;;;;;;7.55;5.78;;;18.10;99.90;;;;;;4954147;28;20495;-74
2021/07/26 01:06:25;;;;;;;7.93;5.32;;;18.10;99.90;;;;;;4953090;29;20054;-73
2021/07/26 01:08:51;;;;;;;6.80;4.95;;;18.10;99.90;;;;;;4952780;28;20054;-73
2021/07/26 01:11:18;;;;;;;6.75;5.07;;;18.10;99.90;;;;;;4940801;29;20035;-73
2021/07/26 01:13:44;;;;;;;6.78;5.80;;;18.20;99.90;;;;;;4940035;29;20027;-73
2021/07/26 01:16:11;;;;;;;5.85;4.88;;;18.20;99.90;;;;;;4951517;29;20031;-72
2021/07/26 01:18:37;;;;;;;6.95;4.90;;;18.30;99.90;;;;;;4948711;29;20485;-73
2021/07/26 01:21:12;;;;;;;7.13;5.22;;;18.40;99.90;;;;;;4940137;29;20035;-74
2021/07/26 01:23:40;;;;;;;6.60;5.10;;;18.50;99.90;;;;;;4952764;29;20042;-73
2021/07/26 01:26:09;;;;;;;6.40;4.90;;;18.50;99.90;;;;;;4951713;28;20451;-73
2021/07/26 01:28:41;;;;;;;7.10;4.90;;;18.50;99.90;;;;;;4953126;28;20433;-72
2021/07/26 01:31:10;;;;;;;6.32;4.82;;;18.50;99.90;;;;;;4951884;28;20481;-73
2021/07/26 01:33:37;;;;;;;9.80;5.03;;;18.50;99.90;;;;;;4942670;28;20047;-73
2021/07/26 01:36:04;;;;;;;6.20;5.00;;;18.50;99.90;;;;;;4952331;28;20047;-73
2021/07/26 01:38:31;;;;;;;8.52;5.05;;;18.60;99.90;;;;;;4952505;29;20040;-74
2021/07/26 01:41:02;;;;;;;7.65;5.40;;;18.70;99.90;;;;;;4951271;29;20034;-72
2021/07/26 01:43:37;;;;;;;5.25;4.43;;;18.60;99.90;;;;;;4952687;29;20334;-73
2021/07/26 01:46:29;;;;;;;8.05;5.07;;;18.60;99.90;;;;;;4952100;29;20043;-74
2021/07/26 01:49:43;;;;;;;5.28;4.75;;;18.60;99.90;;;;;;4937874;29;20035;-73
2021/07/26 01:52:09;;;;;;;6.78;5.15;;;18.70;99.90;;;;;;4956968;28;20047;-72
2021/07/26 01:54:36;;;;;;;7.13;5.22;;;18.60;99.90;;;;;;4952804;28;20076;-72
2021/07/26 01:57:02;;;;;;;6.88;5.43;;;18.60;99.90;;;;;;4939197;29;20027;-72
2021/07/26 01:59:29;;;;;;;5.88;5.28;;;18.60;99.90;;;;;;4950048;29;20409;-72
2021/07/26 02:01:55;;;;;;;7.68;5.60;;;18.60;99.90;;;;;;4955878;29;20213;-72
2021/07/26 02:04:22;;;;;;;7.82;5.57;;;18.60;99.90;;;;;;4953486;29;20027;-73
2021/07/26 02:06:48;;;;;;;7.30;5.68;;;18.60;99.90;;;;;;4939569;29;20035;-73
2021/07/26 02:09:15;;;;;;;7.80;5.65;;;18.50;99.90;;;;;;4956002;28;20054;-72
2021/07/26 02:11:41;;;;;;;6.90;5.75;;;18.40;99.90;;;;;;4955303;29;20457;-72
2021/07/26 02:14:10;;;;;;;6.00;5.38;;;18.30;99.90;;;;;;4955487;29;20039;-72
2021/07/26 02:16:38;;;;;;;8.88;5.65;;;18.20;99.90;;;;;;4955047;29;20031;-73
2021/07/26 02:19:06;;;;;;;6.88;5.28;;;18.20;99.90;;;;;;4955051;29;20043;-74
2021/07/26 02:21:32;;;;;;;8.77;5.78;;;18.20;99.90;;;;;;4956836;29;20054;-73
2021/07/26 02:23:59;;;;;;;8.48;6.32;;;18.10;99.90;;;;;;4954032;29;20043;-73
2021/07/26 02:26:25;;;;;;;7.13;6.22;;;18.00;99.90;;;;;;4939081;29;20040;-73
2021/07/26 02:28:53;;;;;;;8.88;6.05;;;18.00;99.90;;;;;;4955227;29;20038;-74
2021/07/26 02:31:20;;;;;;;8.18;5.68;;;18.00;99.90;;;;;;4956212;29;20039;-71
2021/07/26 02:33:46;;;;;;;8.63;6.55;;;18.00;99.90;;;;;;4962955;29;20035;-73
2021/07/26 02:36:12;;;;;;;8.73;6.10;;;17.90;99.90;;;;;;4960338;29;20046;-74
2021/07/26 02:38:38;;;;;;;9.00;6.00;;;17.90;99.90;;;;;;4956203;29;20446;-73
2021/07/26 02:41:11;;;;;;;7.10;5.80;;;17.90;99.90;;;;;;4954911;29;20034;-73
2021/07/26 02:43:38;;;;;;;8.05;5.85;;;18.00;99.90;;;;;;4953887;29;20031;-73
2021/07/26 02:46:06;;;;;;;8.88;5.68;;;18.00;99.90;;;;;;4954862;29;20031;-73
2021/07/26 02:48:33;;;;;;;6.85;5.22;;;18.00;99.90;;;;;;4955441;28;20392;-74
2021/07/26 02:50:59;;;;;;;7.75;5.60;;;18.00;99.90;;;;;;4955618;29;20054;-75
2021/07/26 02:53:25;;;;;;;7.25;5.68;;;18.10;99.90;;;;;;4969938;28;20043;-74
2021/07/26 02:55:51;;;;;;;6.43;5.15;;;18.10;99.90;;;;;;4954281;29;20350;-74
2021/07/26 02:58:20;;;;;;;9.05;5.63;;;18.10;99.90;;;;;;4954670;29;20051;-74
2021/07/26 03:00:47;;;;;;;7.70;5.50;;;18.10;99.90;;;;;;4955149;29;20031;-73
2021/07/26 03:03:13;;;;;;;8.48;5.10;;;18.10;99.90;;;;;;4954639;29;20469;-73
2021/07/26 03:05:39;;;;;;;6.65;5.97;;;18.00;99.90;;;;;;4944838;28;20051;-73
2021/07/26 03:08:06;;;;;;;7.75;5.65;;;17.90;99.90;;;;;;4947462;29;20412;-74
2021/07/26 03:10:32;;;;;;;8.68;6.50;;;17.90;99.90;;;;;;4943780;29;20031;-74
2021/07/26 03:12:59;;;;;;;9.98;5.30;;;17.80;99.90;;;;;;4951653;28;20040;-72
2021/07/26 03:15:26;;;;;;;10.50;6.45;;;17.80;99.90;;;;;;4953769;29;20358;-73
2021/07/26 03:17:52;;;;;;;7.32;6.20;;;17.70;99.90;;;;;;4953681;29;20039;-74
2021/07/26 03:20:18;;;;;;;9.00;6.50;;;17.70;99.90;;;;;;4955550;29;20066;-73
2021/07/26 03:23:20;;;;;;;8.05;6.30;;;17.70;99.90;;;;;;4954837;29;20038;-73
2021/07/26 03:25:46;;;;;;;8.32;6.43;;;17.60;99.90;;;;;;4958597;28;20027;-72
2021/07/26 03:28:12;;;;;;;7.38;6.13;;;17.60;99.90;;;;;;4957058;28;20390;-72
2021/07/26 03:30:39;;;;;;;7.65;6.40;;;17.60;99.90;;;;;;4954452;29;20465;-73
2021/07/26 03:33:06;;;;;;;9.65;6.78;;;17.60;99.90;;;;;;4954128;29;20035;-73
2021/07/26 03:35:33;;;;;;;10.70;7.07;;;17.60;99.90;;;;;;4954403;29;20473;-73
2021/07/26 03:37:59;;;;;;;7.70;6.00;;;17.60;99.90;;;;;;4953760;29;20039;-73
2021/07/26 03:40:25;;;;;;;9.50;5.63;;;17.60;99.90;;;;;;4968065;28;20043;-73
2021/07/26 03:42:52;;;;;;;9.55;5.95;;;17.70;99.90;;;;;;4954152;29;20449;-74
2021/07/26 03:45:20;;;;;;;8.20;5.32;;;17.70;99.90;;;;;;4954280;29;20461;-73
2021/07/26 03:47:47;;;;;;;7.18;5.72;;;17.70;99.90;;;;;;4954085;29;20035;-73
2021/07/26 03:50:15;;;;;;;7.18;5.35;;;17.70;99.90;;;;;;4952660;29;20031;-73
2021/07/26 03:52:52;;;;;;;8.35;6.20;;;17.70;99.90;;;;;;4954037;29;20364;-73
2021/07/26 03:55:24;;;;;;;7.78;5.72;;;17.70;99.90;;;;;;4953993;29;20034;-73
2021/07/26 03:57:52;;;;;;;7.45;5.18;;;17.60;99.90;;;;;;4953509;29;20055;-74
2021/07/26 04:00:19;;;;;;;8.20;6.38;;;17.70;99.90;;;;;;4937528;28;20052;-73
2021/07/26 04:02:53;;;;;;;7.70;6.28;;;17.70;99.90;;;;;;4949359;29;20031;-74
2021/07/26 04:05:41;;;;;;;8.63;6.22;;;17.70;99.90;;;;;;4953916;29;20044;-72
2021/07/26 04:08:13;;;;;;;8.00;6.07;;;17.70;99.90;;;;;;4943866;29;20051;-72
2021/07/26 04:10:43;;;;;;;7.78;6.03;;;17.70;99.90;;;;;;4952845;28;20043;-73
2021/07/26 04:13:09;;;;;;;7.20;6.03;;;17.70;99.90;;;;;;4953512;29;20488;-72
2021/07/26 04:15:36;;;;;;;10.55;6.55;;;17.70;99.90;;;;;;4954622;29;20361;-72
2021/07/26 04:18:02;;;;;;;8.18;6.10;;;17.70;99.90;;;;;;4952484;28;20043;-73
2021/07/26 04:20:28;;;;;;;7.20;5.88;;;17.70;99.90;;;;;;4952458;29;20473;-73
2021/07/26 04:22:56;;;;;;;7.72;5.95;;;17.80;99.90;;;;;;4938097;29;20035;-73
2021/07/26 04:25:22;;;;;;;14.75;6.32;;;17.80;99.90;;;;;;4952831;28;20046;-72
2021/07/26 04:27:49;;;;;;;8.70;5.70;;;17.80;99.90;;;;;;4953285;29;20046;-73
2021/07/26 04:30:15;;;;;;;6.28;5.20;;;17.90;99.90;;;;;;4953353;29;20062;-73
2021/07/26 04:32:46;;;;;;;7.55;5.65;;;17.90;99.90;;;;;;4953668;28;20108;-73
2021/07/26 04:35:14;;;;;;;10.05;6.25;;;17.90;99.90;;;;;;4953478;29;20043;-72
2021/07/26 04:37:41;;;;;;;10.18;6.78;;;18.00;99.90;;;;;;4935627;28;20071;-72
2021/07/26 04:40:08;;;;;;;7.03;5.75;;;18.00;99.90;;;;;;4952228;29;20042;-74
2021/07/26 04:42:38;;;;;;;7.63;5.85;;;18.20;99.90;;;;;;4937964;29;20036;-73
2021/07/26 04:45:06;;;;;;;6.32;4.88;;;18.50;99.90;;;;;;4948959;28;20508;-73
2021/07/26 04:47:32;;;;;;;6.30;4.63;;;19.10;99.90;;;;;;4954341;29;20066;-73
2021/07/26 04:49:59;;;;;;;5.07;4.50;;;19.60;99.90;;;;;;4951951;29;20054;-74
2021/07/26 04:52:25;;;;;;;6.13;4.68;;;20.20;99.90;;;;;;4953374;29;20457;-74
2021/07/26 04:54:51;;;;;;;5.85;4.80;;;20.60;99.90;;;;;;4953198;29;20051;-75
2021/07/26 04:57:17;;;;;;;5.65;4.00;;;21.10;99.90;;;;;;4952497;29;20466;-71
2021/07/26 04:59:44;;;;;;;8.30;4.68;;;21.90;99.90;;;;;;4952581;28;20055;-72
2021/07/26 05:02:11;;;;;;;5.70;3.90;;;22.10;99.90;;;;;;4953993;28;20039;-72
2021/07/26 05:04:39;;;;;;;5.00;4.10;;;22.50;99.90;;;;;;4954546;28;20047;-72
2021/07/26 05:07:05;;;;;;;5.15;3.83;;;22.90;99.30;;;;;;4934564;29;20039;-74
2021/07/26 05:09:39;;;;;;;6.10;4.00;;;23.10;98.50;;;;;;4951994;28;20048;-71
2021/07/26 05:12:12;;;;;;;5.70;4.00;;;23.50;97.30;;;;;;4952806;28;20047;-72
2021/07/26 05:14:40;;;;;;;7.38;4.03;;;23.80;96.30;;;;;;4953875;28;20504;-72
2021/07/26 05:17:06;;;;;;;4.88;3.50;;;23.80;95.20;;;;;;4952284;29;20035;-72
2021/07/26 05:19:33;;;;;;;4.78;3.80;;;23.90;95.30;;;;;;4952961;29;20492;-72
2021/07/26 05:21:59;;;;;;;4.70;3.55;;;24.20;93.50;;;;;;4951583;29;20038;-72
2021/07/26 05:24:25;;;;;;;5.93;3.45;;;24.20;93.00;;;;;;4952949;29;20044;-73
2021/07/26 05:27:02;;;;;;;4.40;4.00;;;23.20;93.90;;;;;;4953059;29;20488;-72
2021/07/26 05:29:29;;;;;;;8.23;4.03;;;22.20;95.90;;;;;;4955828;28;20050;-71
2021/07/26 05:31:58;;;;;;;5.70;3.75;;;21.70;97.90;;;;;;4957597;29;20366;-72
2021/07/26 05:34:25;;;;;;;6.00;4.35;;;21.60;98.50;;;;;;4956896;29;20062;-72
2021/07/26 05:36:51;;;;;;;4.28;3.83;;;21.70;97.90;;;;;;4955390;28;20047;-72
2021/07/26 05:39:18;;;;;;;4.95;3.88;;;21.70;98.70;;;;;;4947804;28;20044;-72
2021/07/26 05:41:44;;;;;;;6.13;4.28;;;21.70;99.10;;;;;;4957554;28;20047;-71
2021/07/26 05:44:11;;;;;;;6.60;4.32;;;21.60;99.00;;;;;;4954876;29;20035;-72
2021/07/26 05:46:37;;;;;;;5.57;4.50;;;21.30;99.50;;;;;;4955979;29;20027;-71
2021/07/26 05:49:04;;;;;;;5.40;4.65;;;21.40;99.90;;;;;;4955830;29;20043;-71
2021/07/26 05:51:30;;;;;;;5.60;3.88;;;21.60;99.50;;;;;;4952982;29;20047;-72
2021/07/26 05:53:56;;;;;;;7.15;4.68;;;22.50;98.30;;;;;;4956384;28;20054;-73
2021/07/26 05:56:22;;;;;;;5.47;4.65;;;23.50;94.70;;;;;;4956083;29;20042;-72
2021/07/26 05:58:51;;;;;;;9.52;5.03;;;22.90;94.60;;;;;;4955410;29;20062;-72
2021/07/26 06:01:46;;;;;;;8.15;4.95;;;22.40;95.40;;;;;;4954559;29;20039;-72
2021/07/26 06:04:23;;;;;;;6.38;4.63;;;21.80;96.80;;;;;;4954497;28;20485;-72
2021/07/26 06:06:54;;;;;;;8.73;4.78;;;21.00;98.50;;;;;;4956586;28;20373;-72
2021/07/26 06:09:22;;;;;;;7.70;4.72;;;21.10;99.30;;;;;;4954797;29;20042;-72
2021/07/26 06:11:49;;;;;;;6.55;4.38;;;21.30;99.30;;;;;;4958194;28;20038;-72
2021/07/26 06:14:16;;;;;;;6.72;4.78;;;21.60;99.40;;;;;;4954303;29;20034;-73
2021/07/26 06:16:47;;;;;;;6.40;4.85;;;22.30;97.20;;;;;;4955416;29;20035;-76
2021/07/26 06:19:15;;;;;;;6.05;4.43;;;22.30;96.60;;;;;;4955770;28;20062;-73
2021/07/26 06:21:44;;;;;;;7.75;5.38;;;23.10;95.40;;;;;;4955422;29;20031;-73
2021/07/26 06:24:11;;;;;;;7.75;4.70;;;22.80;95.20;;;;;;4953849;29;20035;-73
2021/07/26 06:26:38;;;;;;;7.50;4.82;;;22.40;96.00;;;;;;4955550;28;20059;-74
2021/07/26 06:29:05;;;;;;;6.95;4.38;;;22.20;96.40;;;;;;4966456;28;20043;-75
2021/07/26 06:31:35;;;;;;;5.32;4.50;;;22.90;95.30;;;;;;4956423;28;20039;-74
2021/07/26 06:34:01;;;;;;;;;;;23.60;94.00;;;;;;4965169;28;20046;-74
2021/07/26 06:36:29;;;;;;;9.13;4.60;;;25.10;92.30;;;;;;4978009;28;19910;-74
2021/07/26 06:38:55;;;;;;;6.93;4.70;;;26.20;90.00;;;;;;4955439;29;20477;-75
2021/07/26 06:41:22;;;;;;;6.40;4.28;;;26.40;85.40;;;;;;4952762;28;20050;-75
2021/07/26 06:43:52;;;;;;;6.50;4.13;;;24.50;88.50;;;;;;4958262;28;20034;-75
2021/07/26 06:46:23;;;;;;;5.97;4.55;;;23.30;91.40;;;;;;4953891;28;20031;-74
2021/07/26 06:48:50;;;;;;;7.70;4.82;;;23.70;92.30;;;;;;4949483;28;20028;-74
2021/07/26 06:51:17;;;;;;;5.22;3.88;;;24.80;90.20;;;;;;4948700;29;20027;-74
2021/07/26 06:53:44;;;;;;;5.60;4.28;;;26.40;86.70;;;;;;4969396;28;20043;-75
2021/07/26 06:56:10;;;;;;;5.07;4.05;;;26.50;81.60;;;;;;4954716;29;20035;-74
2021/07/26 06:58:40;;;;;;;8.57;4.50;;;25.70;83.40;;;;;;4968948;28;20051;-74
2021/07/26 07:01:07;;;;;;;;;;;26.40;83.20;;;;;;4954693;29;20046;-74
2021/07/26 07:03:33;;;;;;;6.57;3.67;;;27.90;78.30;;;;;;4954930;29;19910;-74
2021/07/26 07:06:04;;;;;;;6.25;4.13;;;28.50;76.60;;;;;;4954161;29;20047;-75
2021/07/26 07:08:30;;;;;;;5.63;3.92;;;28.10;75.20;;;;;;4954565;29;20030;-75
2021/07/26 07:11:11;;;;;;;6.75;3.70;;;28.20;74.10;;;;;;4941017;29;20398;-75
2021/07/26 07:13:40;;;;;;;6.18;3.75;;;28.00;73.20;;;;;;4953892;29;20035;-75
2021/07/26 07:16:10;;;;;;;6.10;3.60;;;28.70;74.50;;;;;;4951798;28;20039;-77
2021/07/26 07:18:36;;;;;;;5.70;3.97;;;27.40;72.90;;;;;;4953001;29;20310;-77
2021/07/26 07:21:03;;;;;;;4.30;3.88;;;27.30;74.40;;;;;;4953605;29;20039;-76
2021/07/26 07:23:30;;;;;;;5.55;4.30;;;26.80;76.00;;;;;;4955564;29;20042;-77
2021/07/26 07:25:56;;;;;;;5.68;3.80;;;26.50;75.00;;;;;;4952744;29;20027;-77
2021/07/26 07:28:23;;;;;;;4.80;3.42;;;27.20;73.20;;;;;;4953605;29;20042;-75
2021/07/26 07:30:49;;;;;;;6.20;3.78;;;27.80;73.10;;;;;;4954088;29;20035;-75
2021/07/26 07:33:15;;;;;;;4.93;4.03;;;28.00;71.40;;;;;;4952783;28;20050;-75
2021/07/26 07:35:41;;;;;;;5.72;3.90;;;28.40;70.50;;;;;;4954169;29;20028;-76
2021/07/26 07:38:08;;;;;;;7.30;3.72;;;29.40;68.50;;;;;;4953595;29;20047;-76
2021/07/26 07:40:37;;;;;;;6.65;4.13;;;29.30;66.80;;;;;;4953852;29;20031;-76
2021/07/26 07:43:05;;;;;;;6.05;4.38;;;28.80;66.70;;;;;;4952213;29;20036;-78
2021/07/26 07:45:32;;;;;;;8.13;4.38;;;28.10;66.70;;;;;;4953485;29;20035;-76
2021/07/26 07:47:59;;;;;;;8.13;4.63;;;27.10;69.20;;;;;;4953887;29;20046;-77
2021/07/26 07:50:26;;;;;;;5.53;3.75;;;26.20;71.90;;;;;;4953482;29;20484;-75
2021/07/26 07:52:53;;;;;;;5.22;3.55;;;25.70;73.70;;;;;;4952609;28;20039;-75
2021/07/26 07:55:21;;;;;;;7.13;3.75;;;25.30;73.90;;;;;;4951631;29;20023;-75
2021/07/26 07:57:51;;;;;;;4.88;3.72;;;25.20;74.60;;;;;;4953811;28;20039;-75
2021/07/26 08:00:18;;;;;;;6.60;4.03;;;26.60;73.90;;;;;;4953195;28;20051;-76
2021/07/26 08:02:45;;;;;;;5.47;3.90;;;28.20;72.00;;;;;;4953454;29;20492;-75
2021/07/26 08:05:11;;;;;;;6.13;3.70;;;30.00;65.30;;;;;;4952761;28;20054;-75
2021/07/26 08:07:37;;;;;;;7.53;4.10;;;30.10;63.20;;;;;;4953757;28;20043;-77
2021/07/26 08:10:05;;;;;;;4.93;3.83;;;30.40;62.30;;;;;;4953003;29;20042;-77
2021/07/26 08:12:34;;;;;;;6.88;4.60;;;29.60;62.10;;;;;;4936710;29;20040;-76
2021/07/26 08:15:03;;;;;;;4.35;3.40;;;27.60;66.80;;;;;;4952201;28;20050;-76
2021/07/26 08:17:30;;;;;;;9.73;4.05;;;26.60;67.00;;;;;;4951819;29;20035;-77
2021/07/26 08:19:56;;;;;;;7.93;3.85;;;25.50;70.80;;;;;;4941166;28;20482;-76
2021/07/26 08:22:22;;;;;;;5.93;3.65;;;25.60;71.10;;;;;;4952734;29;20019;-75
2021/07/26 08:24:49;;;;;;;6.10;3.50;;;25.70;72.10;;;;;;4953400;28;20051;-76
2021/07/26 08:27:15;;;;;;;5.07;4.05;;;25.90;73.80;;;;;;4952709;29;20031;-76
2021/07/26 08:29:41;;;;;;;5.60;3.30;;;26.90;68.10;;;;;;4953201;29;20046;-76
2021/07/26 08:32:07;;;;;;;6.20;3.42;;;27.80;67.60;;;;;;4952589;29;20039;-76
2021/07/26 08:34:33;;;;;;;7.95;3.67;;;28.30;66.50;;;;;;4953331;29;20042;-76
2021/07/26 08:37:02;;;;;;;5.50;3.40;;;28.60;64.60;;;;;;4951896;29;20342;-76
2021/07/26 08:39:30;;;;;;;5.05;3.05;;;29.30;63.20;;;;;;4952928;29;20078;-77
2021/07/26 08:41:56;;;;;;;6.72;3.38;;;30.10;63.80;;;;;;4953525;28;20039;-76
2021/07/26 08:44:22;;;;;;;8.00;3.67;;;30.70;59.90;;;;;;4950806;28;20054;-75
2021/07/26 08:46:52;;;;;;;3.92;2.85;;;30.00;60.10;;;;;;4952581;28;20062;-75
2021/07/26 08:49:20;;;;;;;3.95;2.97;;;28.30;62.90;;;;;;4952147;29;20046;-75
2021/07/26 08:51:48;;;;;;;6.55;3.35;;;28.20;63.60;;;;;;4953070;29;20031;-75
2021/07/26 08:54:15;;;;;;;4.25;2.85;;;28.10;63.20;;;;;;4952532;28;20054;-75
2021/07/26 08:56:44;;;;;;;5.60;2.85;;;28.60;62.90;;;;;;4952970;28;20036;-76
2021/07/26 08:59:12;;;;;;;4.13;3.08;;;28.70;62.80;;;;;;4952756;28;20052;-76
2021/07/26 09:01:42;;;;;;;3.58;2.85;;;29.00;61.60;;;;;;4952918;29;20043;-76
2021/07/26 09:04:09;;;;;;;4.45;2.90;;;28.80;60.50;;;;;;4954907;28;20062;-76
2021/07/26 09:06:36;;;;;;;2.92;2.53;;;28.90;61.10;;;;;;4946460;29;20377;-76
2021/07/26 09:09:02;;;;;;;4.13;2.72;;;28.20;61.50;;;;;;4957659;29;20039;-76
2021/07/26 09:11:45;;;;;;;5.07;2.65;;;28.20;62.10;;;;;;4955355;29;20031;-76
2021/07/26 09:14:38;;;;;;;3.90;2.42;;;27.70;64.30;;;;;;4955082;29;20366;-75
2021/07/26 09:17:05;;;;;;;4.05;2.85;;;28.60;62.40;;;;;;4955586;29;20388;-76
2021/07/26 09:19:58;;;;;;;6.75;3.00;;;29.20;61.90;;;;;;4954823;29;20054;-76
2021/07/26 09:22:32;;;;;;;5.50;3.10;;;30.00;58.90;;;;;;4940564;29;20031;-76
2021/07/26 09:25:21;;;;;;;3.38;2.63;;;29.40;59.40;;;;;;4956480;29;20477;-74
2021/07/26 09:28:07;;;;;;;5.03;3.30;;;27.80;62.10;;;;;;4947273;29;20027;-75
2021/07/26 09:30:40;;;;;;;5.10;3.30;;;27.10;62.70;;;;;;4956825;28;20054;-75
2021/07/26 09:33:29;;;;;;;6.32;3.50;;;26.00;65.00;;;;;;4954102;29;20040;-76
2021/07/26 09:36:18;;;;;;;4.97;3.47;;;25.80;67.40;;;;;;4954716;29;20500;-76
2021/07/26 09:38:52;;;;;;;6.70;3.72;;;25.80;66.90;;;;;;4956318;29;20039;-76
2021/07/26 09:41:42;;;;;;;5.65;3.55;;;26.70;66.80;;;;;;4948596;29;20040;-76
2021/07/26 09:44:09;;;;;;;4.18;2.70;;;27.70;64.20;;;;;;4945027;29;20039;-76
2021/07/26 09:46:39;;;;;;;8.27;3.55;;;27.10;64.90;;;;;;4956362;29;20035;-76
2021/07/26 09:49:09;;;;;;;3.92;3.53;;;27.80;64.50;;;;;;4954706;29;20054;-77
2021/07/26 09:51:36;;;;;;;5.82;3.28;;;28.30;64.40;;;;;;4940226;29;20042;-76
2021/07/26 09:54:03;;;;;;;4.90;3.33;;;28.80;62.90;;;;;;4954485;29;21936;-77
2021/07/26 09:56:32;;;;;;;5.30;3.65;;;28.90;62.30;;;;;;4957951;29;20027;-77
2021/07/26 09:58:59;;;;;;;4.72;3.75;;;28.90;60.60;;;;;;4957500;29;20051;-77
2021/07/26 10:01:26;;;;;;;6.03;3.30;;;28.30;62.20;;;;;;4940621;29;20058;-76
2021/07/26 10:03:52;;;;;;;4.40;3.72;;;27.80;62.80;;;;;;4956377;29;20031;-76
2021/07/26 10:06:19;;;;;;;5.13;3.15;;;28.00;62.50;;;;;;4953577;29;20038;-76
2021/07/26 10:08:47;;;;;;;7.15;2.95;;;27.80;63.60;;;;;;4956021;29;20047;-75
2021/07/26 10:11:17;;;;;;;6.60;4.05;;;27.40;63.40;;;;;;4955708;29;20031;-76
2021/07/26 10:13:47;;;;;;;4.95;3.45;;;27.20;65.30;;;;;;4956284;29;20376;-76
2021/07/26 10:16:18;;;;;;;5.55;3.60;;;26.70;64.90;;;;;;4953286;28;20046;-76
2021/07/26 10:18:51;;;;;;;5.25;3.60;;;27.40;64.40;;;;;;4960321;28;20034;-75
2021/07/26 10:21:24;;;;;;;5.35;3.38;;;27.90;63.30;;;;;;4957164;28;20035;-74
2021/07/26 10:23:50;;;;;;;5.93;3.67;;;27.70;64.10;;;;;;4955945;29;20035;-75
2021/07/26 10:26:18;;;;;;;9.13;3.65;;;27.30;65.40;;;;;;4954822;29;20031;-78
2021/07/26 10:28:56;;;;;;;4.65;3.58;;;27.10;64.50;;;;;;4962493;28;20039;-75
2021/07/26 10:31:32;;;;;;;6.65;3.80;;;26.30;65.40;;;;;;4965796;28;20039;-74
2021/07/26 10:34:02;;;;;;;7.40;4.25;;;26.60;65.50;;;;;;4980514;28;20042;-74
2021/07/26 10:36:40;;;;;;;5.25;4.07;;;27.00;63.50;;;;;;4970759;29;20046;-75
2021/07/26 10:39:12;;;;;;;4.18;3.50;;;27.00;63.30;;;;;;4962980;28;20050;-75
2021/07/26 10:41:47;;;;;;;5.40;3.55;;;27.10;62.90;;;;;;4957207;28;20035;-75
2021/07/26 10:44:16;;;;;;;5.63;3.35;;;26.60;63.50;;;;;;4969627;28;20039;-75
2021/07/26 10:46:51;;;;;;;8.45;4.57;;;26.70;64.60;;;;;;4955207;28;20039;-75
2021/07/26 10:49:17;;;;;;;5.85;4.22;;;26.30;74.10;;;;;;4969933;28;20139;-75
2021/07/26 10:51:49;;;;;;;9.18;4.63;;;25.90;76.90;;;;;;4963956;28;20043;-73
2021/07/26 10:54:35;;;;;;;4.45;4.00;;;25.20;76.90;;;;;;4960595;28;20030;-74
2021/07/26 10:57:01;;;;;;;5.45;4.22;;;24.60;81.70;;;;;;4957464;28;20432;-74
2021/07/26 10:59:29;;;;;;;9.00;4.10;;;24.50;83.70;;;;;;4955083;29;20389;-75
2021/07/26 11:02:01;;;;;;;4.60;3.55;;;24.70;80.30;;;;;;4969677;28;20043;-74
2021/07/26 11:04:32;;;;;;;3.33;2.80;;;24.90;76.90;;;;;;4954264;29;20031;-75
2021/07/26 11:07:00;;;;;;;4.50;2.80;;;24.90;76.30;;;;;;4970062;28;20043;-76
2021/07/26 11:09:32;;;;;;;4.20;2.80;;;25.20;72.50;;;;;;4954913;28;20051;-75
2021/07/26 11:11:59;;;;;;;4.97;3.28;;;25.30;72.40;;;;;;4954898;29;20035;-75
2021/07/26 11:14:25;;;;;;;4.20;3.35;;;25.50;70.60;;;;;;4953800;28;20031;-75
2021/07/26 11:16:53;;;;;;;5.25;3.58;;;25.80;73.00;;;;;;4953361;28;20112;-75
2021/07/26 11:19:37;;;;;;;6.32;3.85;;;26.00;69.70;;;;;;4953822;29;20043;-75
2021/07/26 11:22:17;;;;;;;4.45;3.15;;;25.90;68.90;;;;;;4956532;28;20038;-79
2021/07/26 11:24:49;;;;;;;3.90;3.30;;;25.80;69.90;;;;;;4952793;29;20470;-75
2021/07/26 11:27:17;;;;;;;5.07;3.13;;;25.80;70.30;;;;;;4953419;28;20035;-74
2021/07/26 11:29:54;;;;;;;5.82;3.20;;;25.80;71.00;;;;;;4953937;29;20031;-74
2021/07/26 11:32:22;;;;;;;6.22;3.47;;;25.50;69.10;;;;;;4953535;29;20050;-74
2021/07/26 11:34:56;;;;;;;5.75;3.20;;;25.60;68.60;;;;;;4954337;29;20470;-74
2021/07/26 11:37:30;;;;;;;3.80;3.03;;;25.70;66.70;;;;;;4968160;28;20504;-73
2021/07/26 11:39:58;;;;;;;5.40;3.30;;;25.80;64.60;;;;;;4954064;29;20043;-74
2021/07/26 11:42:32;;;;;;;3.88;2.53;;;26.10;66.00;;;;;;4952432;29;20601;-73
2021/07/26 11:45:03;;;;;;;10.55;3.65;;;26.50;63.60;;;;;;4954078;29;20124;-74
2021/07/26 11:47:37;;;;;;;7.40;3.00;;;26.70;63.40;;;;;;4953216;29;20346;-74
2021/07/26 11:50:12;;;;;;;5.60;3.63;;;26.70;64.30;;;;;;4952929;29;20039;-78
2021/07/26 11:52:50;;;;;;;3.88;3.20;;;26.60;66.40;;;;;;4954016;29;20034;-74
2021/07/26 11:55:16;;;;;;;3.92;2.75;;;26.70;65.60;;;;;;4951971;29;20031;-74
2021/07/26 11:57:59;;;;;;;4.25;3.22;;;27.10;64.40;;;;;;4950357;29;20386;-76
2021/07/26 12:00:33;;;;;;;4.03;2.75;;;27.80;62.60;;;;;;4945603;29;20039;-76
2021/07/26 12:03:00;;;;;;;5.75;3.05;;;28.10;61.40;;;;;;4945794;29;20046;-74
2021/07/26 12:05:31;;;;;;;4.38;3.10;;;27.90;60.30;;;;;;4952949;29;20038;-74
2021/07/26 12:08:10;;;;;;;6.00;2.90;;;27.70;59.50;;;;;;4953851;29;20027;-73
2021/07/26 12:10:37;;;;;;;4.47;3.00;;;27.20;60.20;;;;;;4953594;29;20094;-75
2021/07/26 12:13:18;;;;;;;5.75;3.17;;;26.40;62.20;;;;;;4952780;29;20279;-75
2021/07/26 12:15:47;;;;;;;9.75;3.40;;;25.20;66.70;;;;;;4950017;29;20417;-76
2021/07/26 12:18:17;;;;;;;5.45;3.05;;;24.70;68.20;;;;;;4951201;29;20035;-73
2021/07/26 12:20:58;;;;;;;5.75;3.30;;;24.60;69.20;;;;;;4973513;28;20047;-75
2021/07/26 12:23:28;;;;;;;4.00;3.17;;;24.80;69.80;;;;;;4961635;28;20034;-74
2021/07/26 12:26:08;;;;;;;4.45;3.35;;;25.10;69.10;;;;;;4952467;29;20389;-77
2021/07/26 12:28:45;;;;;;;3.95;2.88;;;25.30;66.00;;;;;;4935153;29;20054;-73
2021/07/26 12:31:28;;;;;;;5.53;2.85;;;25.30;65.70;;;;;;4938295;29;20039;-75
2021/07/26 12:34:23;;;;;;;3.88;3.08;;;25.20;65.20;;;;;;4956817;28;20050;-74
2021/07/26 12:36:50;;;;;;;6.65;3.42;;;25.30;65.20;;;;;;4935842;29;20377;-74
2021/07/26 12:39:18;;;;;;;7.90;3.20;;;25.40;66.60;;;;;;4940730;29;20495;-74
2021/07/26 12:41:47;;;;;;;4.57;2.90;;;25.60;66.60;;;;;;4953241;29;20035;-74
2021/07/26 12:44:19;;;;;;;2.90;2.20;;;26.00;60.00;;;;;;4952839;29;20034;-75
2021/07/26 12:46:47;;;;;;;2.85;2.15;;;26.40;58.40;;;;;;4958935;28;20039;-77
2021/07/26 12:49:14;;;;;;;2.55;2.00;;;26.90;59.80;;;;;;4936531;29;20042;-79
2021/07/26 12:51:40;;;;;;;4.47;2.63;;;27.40;60.10;;;;;;4953823;29;20038;-79
2021/07/26 12:54:06;;;;;;;3.13;2.10;;;27.60;57.50;;;;;;4954188;29;20027;-83
2021/07/26 12:56:33;;;;;;;4.78;2.03;;;28.00;57.20;;;;;;4952655;28;20044;-74
2021/07/26 12:58:59;;;;;;;2.80;2.40;;;27.80;57.40;;;;;;4952506;29;20054;-80
2021/07/26 13:01:25;;;;;;;4.22;2.50;;;27.60;57.90;;;;;;4951631;29;20046;-74